Annabelle — VL7088 — position and weather

sailwx.info

Track history (hours):
 
Tides and Currents Weather Stations Pressure Air Temp Water Temp Dewpoint Dewpoint Depression Visibility Wind Speed Wind Dir Waves Ship Positions

Annabelle

Last reported at 2018-Apr-21 00:00 UTC. Time now 2018-Apr-21 00:24 UTC.
Position S 27°45' E 153°21'.

Length 24 m.

Type: Pleasure craft. MMSI: 503145400.

Date/timePositionNaut miles runAvg speedWind from/ knotsBaromVisibWave heightAir tempDewpointWater temp
2018-Apr-21 00:00S 27°45' E 153°21'0 0.0
2018-Apr-20 23:30S 27°45' E 153°21'0 0.0
2018-Apr-20 23:00S 27°45' E 153°21'0 0.0
2018-Apr-20 22:24S 27°45' E 153°21'0 0.0
2018-Apr-20 22:00S 27°45' E 153°21'0 0.0
2018-Apr-20 21:30S 27°45' E 153°21'0 0.0
2018-Apr-20 21:00S 27°45' E 153°21'0 0.0
2018-Apr-20 20:30S 27°45' E 153°21'0 0.0
2018-Apr-20 20:00S 27°45' E 153°21'0 0.0
2018-Apr-20 19:30S 27°45' E 153°21'0 0.0
2018-Apr-20 19:00S 27°45' E 153°21'0 0.0
2018-Apr-20 18:30S 27°45' E 153°21'0 0.0
2018-Apr-20 18:00S 27°45' E 153°21'0 0.0
2018-Apr-20 17:30S 27°45' E 153°21'0 0.0
2018-Apr-20 17:00S 27°45' E 153°21'0 0.0
2018-Apr-20 16:30S 27°45' E 153°21'0 0.0
2018-Apr-20 16:00S 27°45' E 153°21'0 0.0
2018-Apr-20 15:30S 27°45' E 153°21'0 0.0
2018-Apr-20 15:00S 27°45' E 153°21'0 0.0
2018-Apr-20 14:27S 27°45' E 153°21'0 0.0
2018-Apr-20 13:57S 27°45' E 153°21'0 0.0
2018-Apr-20 13:30S 27°45' E 153°21'0 0.0
2018-Apr-20 13:00S 27°45' E 153°21'0 0.0
2018-Apr-20 12:30S 27°45' E 153°21'0 0.0
2018-Apr-20 12:00S 27°45' E 153°21'0 0.0
2018-Apr-20 11:30S 27°45' E 153°21'  
2018-Apr-16 21:37S 27°52' E 153°20'1 0.1
2018-Apr-16 00:41S 27°51' E 153°21'2 4.7
2018-Apr-16 00:20S 27°51' E 153°23'2 4.2
2018-Apr-15 23:53S 27°52' E 153°25'1 0.7
2018-Apr-15 21:41S 27°54' E 153°25'0 0.0
2018-Apr-15 21:29S 27°54' E 153°25'0 0.0
2018-Apr-15 20:59S 27°54' E 153°25'0 0.0
2018-Apr-15 19:47S 27°54' E 153°25'0 0.0
2018-Apr-15 16:35S 27°54' E 153°25'0 0.0
2018-Apr-15 16:29S 27°54' E 153°25'7 0.4
2018-Apr-14 22:11S 27°47' E 153°26'1 7.2
2018-Apr-14 22:00S 27°46' E 153°26'0 0.6
2018-Apr-14 21:28S 27°46' E 153°26'0 0.0
2018-Apr-14 20:58S 27°46' E 153°26'0 0.0
2018-Apr-14 20:22S 27°46' E 153°26'0 0.0
2018-Apr-14 19:58S 27°46' E 153°26'0 0.0
2018-Apr-14 19:19S 27°46' E 153°26'0 0.0
2018-Apr-14 18:58S 27°46' E 153°26'0 0.0
2018-Apr-14 18:28S 27°46' E 153°26'0 0.0
2018-Apr-14 17:55S 27°46' E 153°26'0 0.1
2018-Apr-14 17:28S 27°46' E 153°26'0 0.0
2018-Apr-14 16:58S 27°46' E 153°26'0 0.0
2018-Apr-14 15:07S 27°46' E 153°26'0 0.0
2018-Apr-14 14:40S 27°46' E 153°26'0 0.0
2018-Apr-14 14:28S 27°46' E 153°26'0 0.0
2018-Apr-14 12:34S 27°46' E 153°26'0 0.0
2018-Apr-14 12:28S 27°46' E 153°26'0 0.0
2018-Apr-14 11:58S 27°46' E 153°26'0 0.0
2018-Apr-14 11:28S 27°46' E 153°26'0 0.0
2018-Apr-14 10:58S 27°46' E 153°26'0 0.1
2018-Apr-14 10:28S 27°46' E 153°26'0 0.0
2018-Apr-14 09:58S 27°46' E 153°26'0 0.0
2018-Apr-14 09:28S 27°46' E 153°26'0 0.0
2018-Apr-14 08:58S 27°46' E 153°26'0 0.0
2018-Apr-14 08:28S 27°46' E 153°26'0 0.0
2018-Apr-14 07:55S 27°46' E 153°26'0 0.0
2018-Apr-14 07:28S 27°46' E 153°26'0 0.0
2018-Apr-14 06:58S 27°46' E 153°26'0 0.0
2018-Apr-14 06:28S 27°46' E 153°26'0 0.0
2018-Apr-14 05:58S 27°46' E 153°26'0 0.1
2018-Apr-14 05:22S 27°46' E 153°26'0 0.0
2018-Apr-14 01:25S 27°46' E 153°26'0 0.0
2018-Apr-14 00:46S 27°46' E 153°26'0 0.0
2018-Apr-13 21:55S 27°46' E 153°26'0 0.0
2018-Apr-13 21:28S 27°46' E 153°26'0 0.0
2018-Apr-13 20:58S 27°46' E 153°26'0 0.0
2018-Apr-13 20:28S 27°46' E 153°26'0 0.0
2018-Apr-13 19:58S 27°46' E 153°26'0 0.0
2018-Apr-13 19:25S 27°46' E 153°26'0 0.0
2018-Apr-13 18:58S 27°46' E 153°26'0 0.0
2018-Apr-13 18:28S 27°46' E 153°26'0 0.0
2018-Apr-13 17:58S 27°46' E 153°26'0 0.0
2018-Apr-13 17:28S 27°46' E 153°26'0 0.0
2018-Apr-13 16:58S 27°46' E 153°26'0 0.1
2018-Apr-13 16:28S 27°46' E 153°26'0 0.0
2018-Apr-13 15:58S 27°46' E 153°26'0 0.0
2018-Apr-13 15:28S 27°46' E 153°26'0 0.0
2018-Apr-13 12:22S 27°46' E 153°26'0 0.0
2018-Apr-13 11:52S 27°46' E 153°26'0 0.0
2018-Apr-13 11:19S 27°46' E 153°26'0 0.0
2018-Apr-13 10:58S 27°46' E 153°26'0 0.1
2018-Apr-13 10:07S 27°46' E 153°26'0 0.0
2018-Apr-13 09:46S 27°46' E 153°26'0 0.0
2018-Apr-13 09:28S 27°46' E 153°26'0 0.0
2018-Apr-13 08:58S 27°46' E 153°26'0 0.0
2018-Apr-13 08:28S 27°46' E 153°26'0 0.0
2018-Apr-13 07:58S 27°46' E 153°26'0 0.0
2018-Apr-13 07:28S 27°46' E 153°26'0 0.0
2018-Apr-13 06:52S 27°46' E 153°26'0 0.0
2018-Apr-13 06:28S 27°46' E 153°26'0 0.0
2018-Apr-13 05:58S 27°46' E 153°26'0 0.0
2018-Apr-13 05:28S 27°46' E 153°26'0 0.0
2018-Apr-13 04:58S 27°46' E 153°26'0 0.1
2018-Apr-13 04:28S 27°46' E 153°26'0 0.0
2018-Apr-13 03:58S 27°46' E 153°26'0 0.0
2018-Apr-13 03:16S 27°46' E 153°26'0 0.0
2018-Apr-13 02:58S 27°46' E 153°26'0 0.0
2018-Apr-13 02:25S 27°46' E 153°26'1 1.2
2018-Apr-13 01:59S 27°46' E 153°26'4 7.4
2018-Apr-13 01:30S 27°46' E 153°22'1 2.1
2018-Apr-13 00:58S 27°45' E 153°21'0 0.0
2018-Apr-13 00:28S 27°45' E 153°21'0 0.0
2018-Apr-12 23:55S 27°45' E 153°21'0 0.0
2018-Apr-12 23:28S 27°45' E 153°21'0 0.0
2018-Apr-12 22:52S 27°45' E 153°21'0 0.0
2018-Apr-12 22:25S 27°45' E 153°21'0 0.0
2018-Apr-12 21:28S 27°45' E 153°21'0 0.0
2018-Apr-12 20:58S 27°45' E 153°21'0 0.0
2018-Apr-12 20:28S 27°45' E 153°21'0 0.0
2018-Apr-12 19:43S 27°45' E 153°21'0 0.0
2018-Apr-12 19:16S 27°45' E 153°21'0 0.0
2018-Apr-12 18:55S 27°45' E 153°21'0 0.0
2018-Apr-12 18:25S 27°45' E 153°21'0 0.0
2018-Apr-12 17:58S 27°45' E 153°21'0 0.0
2018-Apr-12 17:01S 27°45' E 153°21'0 0.0
2018-Apr-12 16:55S 27°45' E 153°21'0 0.0
2018-Apr-12 16:28S 27°45' E 153°21'0 0.0
2018-Apr-12 15:52S 27°45' E 153°21'0 0.0
2018-Apr-12 15:22S 27°45' E 153°21'0 0.0
2018-Apr-12 14:58S 27°45' E 153°21'0 0.0
2018-Apr-12 14:28S 27°45' E 153°21'0 0.0
2018-Apr-12 13:46S 27°45' E 153°21'0 0.0
2018-Apr-12 13:13S 27°45' E 153°21'0 0.0
2018-Apr-12 12:58S 27°45' E 153°21'0 0.0
2018-Apr-12 12:22S 27°45' E 153°21'0 0.0
2018-Apr-12 11:58S 27°45' E 153°21'0 0.0
2018-Apr-12 11:22S 27°45' E 153°21'0 0.0
2018-Apr-12 10:25S 27°45' E 153°21'0 0.0
2018-Apr-12 09:43S 27°45' E 153°21'0 0.0
2018-Apr-12 09:22S 27°45' E 153°21'0 0.0
2018-Apr-12 08:58S 27°45' E 153°21'0 0.0
2018-Apr-12 08:25S 27°45' E 153°21'0 0.0
2018-Apr-12 07:58S 27°45' E 153°21'0 0.0
2018-Apr-12 06:46S 27°45' E 153°21'0 0.0
2018-Apr-12 06:25S 27°45' E 153°21'0 0.0
2018-Apr-12 05:58S 27°45' E 153°21'0 0.0
2018-Apr-12 05:22S 27°45' E 153°21'0 0.0
2018-Apr-12 04:58S 27°45' E 153°21'0 0.0
2018-Apr-12 04:16S 27°45' E 153°21'0 0.0
2018-Apr-12 03:55S 27°45' E 153°21'0 0.0
2018-Apr-12 03:28S 27°45' E 153°21'0 0.0
2018-Apr-12 02:43S 27°45' E 153°21'0 0.0
2018-Apr-12 02:04S 27°45' E 153°21'0 0.0
2018-Apr-12 01:58S 27°45' E 153°21'0 0.0
2018-Apr-12 01:28S 27°45' E 153°21'0 0.0
2018-Apr-12 00:58S 27°45' E 153°21'0 0.0
2018-Apr-11 23:40S 27°45' E 153°21'0 0.0
2018-Apr-11 22:46S 27°45' E 153°21'0 0.0
2018-Apr-11 22:10S 27°45' E 153°21'0 0.0
2018-Apr-11 21:52S 27°45' E 153°21'0 0.0
2018-Apr-11 21:28S 27°45' E 153°21'0 0.0
2018-Apr-11 20:52S 27°45' E 153°21'0 0.0
2018-Apr-11 20:22S 27°45' E 153°21'0 0.0
2018-Apr-11 19:55S 27°45' E 153°21'0 0.0
2018-Apr-11 19:28S 27°45' E 153°21'0 0.0
2018-Apr-11 18:55S 27°45' E 153°21'0 0.0
2018-Apr-11 18:28S 27°45' E 153°21'0 0.0
2018-Apr-11 17:58S 27°45' E 153°21'0 0.0
2018-Apr-11 17:28S 27°45' E 153°21'0 0.0
2018-Apr-11 16:49S 27°45' E 153°21'0 0.0
2018-Apr-11 16:25S 27°45' E 153°21'0 0.0
2018-Apr-11 15:58S 27°45' E 153°21'0 0.0
2018-Apr-11 15:28S 27°45' E 153°21'0 0.0
2018-Apr-11 14:52S 27°45' E 153°21'0 0.0
2018-Apr-11 14:28S 27°45' E 153°21'0 0.0
2018-Apr-11 13:34S 27°45' E 153°21'0 0.0
2018-Apr-11 13:22S 27°45' E 153°21'0 0.0
2018-Apr-11 12:58S 27°45' E 153°21'0 0.0
2018-Apr-11 12:28S 27°45' E 153°21'0 0.0
2018-Apr-11 11:55S 27°45' E 153°21'0 0.0
2018-Apr-11 11:28S 27°45' E 153°21'0 0.0
2018-Apr-11 10:55S 27°45' E 153°21'0 0.0
2018-Apr-11 10:28S 27°45' E 153°21'0 0.0
2018-Apr-11 09:58S 27°45' E 153°21'0 0.0
2018-Apr-11 09:04S 27°45' E 153°21'0 0.0
2018-Apr-11 08:55S 27°45' E 153°21'0 0.0
2018-Apr-11 08:25S 27°45' E 153°21'0 0.0
2018-Apr-11 07:58S 27°45' E 153°21'0 0.0
2018-Apr-11 07:28S 27°45' E 153°21'0 0.0
2018-Apr-11 06:43S 27°45' E 153°21'0 0.0
2018-Apr-11 06:28S 27°45' E 153°21'0 0.0
2018-Apr-11 05:58S 27°45' E 153°21'0 0.0
2018-Apr-11 05:16S 27°45' E 153°21'0 0.0
2018-Apr-11 04:58S 27°45' E 153°21'0 0.0
2018-Apr-11 04:25S 27°45' E 153°21'0 0.0
2018-Apr-11 03:55S 27°45' E 153°21'0 0.0
2018-Apr-11 03:25S 27°45' E 153°21'0 0.0
2018-Apr-11 02:52S 27°45' E 153°21'0 0.0
2018-Apr-11 02:25S 27°45' E 153°21'0 0.0
2018-Apr-11 01:58S 27°45' E 153°21'0 0.0
2018-Apr-11 01:25S 27°45' E 153°21'0 0.0
2018-Apr-11 00:58S 27°45' E 153°21'0 0.0
2018-Apr-11 00:28S 27°45' E 153°21'  
Track history (hours):
 
Tides and Currents Weather Stations Pressure Air Temp Water Temp Dewpoint Dewpoint Depression Visibility Wind Speed Wind Dir Waves Ship Positions

Annabelle

Last reported at 2018-Apr-21 00:00 UTC. Time now 2018-Apr-21 00:24 UTC.
Position S 27°45' E 153°21'.

Length 24 m.

Type: Pleasure craft. MMSI: 503145400.

Date/timePositionNaut miles runAvg speedWind from/ knotsBaromVisibWave heightAir tempDewpointWater temp
2018-Apr-21 00:00S 27°45' E 153°21'0 0.0
2018-Apr-20 23:30S 27°45' E 153°21'0 0.0
2018-Apr-20 23:00S 27°45' E 153°21'0 0.0
2018-Apr-20 22:24S 27°45' E 153°21'0 0.0
2018-Apr-20 22:00S 27°45' E 153°21'0 0.0
2018-Apr-20 21:30S 27°45' E 153°21'0 0.0
2018-Apr-20 21:00S 27°45' E 153°21'0 0.0
2018-Apr-20 20:30S 27°45' E 153°21'0 0.0
2018-Apr-20 20:00S 27°45' E 153°21'0 0.0
2018-Apr-20 19:30S 27°45' E 153°21'0 0.0
2018-Apr-20 19:00S 27°45' E 153°21'0 0.0
2018-Apr-20 18:30S 27°45' E 153°21'0 0.0
2018-Apr-20 18:00S 27°45' E 153°21'0 0.0
2018-Apr-20 17:30S 27°45' E 153°21'0 0.0
2018-Apr-20 17:00S 27°45' E 153°21'0 0.0
2018-Apr-20 16:30S 27°45' E 153°21'0 0.0
2018-Apr-20 16:00S 27°45' E 153°21'0 0.0
2018-Apr-20 15:30S 27°45' E 153°21'0 0.0
2018-Apr-20 15:00S 27°45' E 153°21'0 0.0
2018-Apr-20 14:27S 27°45' E 153°21'0 0.0
2018-Apr-20 13:57S 27°45' E 153°21'0 0.0
2018-Apr-20 13:30S 27°45' E 153°21'0 0.0
2018-Apr-20 13:00S 27°45' E 153°21'0 0.0
2018-Apr-20 12:30S 27°45' E 153°21'0 0.0
2018-Apr-20 12:00S 27°45' E 153°21'0 0.0
2018-Apr-20 11:30S 27°45' E 153°21'  
2018-Apr-16 21:37S 27°52' E 153°20'1 0.1
2018-Apr-16 00:41S 27°51' E 153°21'2 4.7
2018-Apr-16 00:20S 27°51' E 153°23'2 4.2
2018-Apr-15 23:53S 27°52' E 153°25'1 0.7
2018-Apr-15 21:41S 27°54' E 153°25'0 0.0
2018-Apr-15 21:29S 27°54' E 153°25'0 0.0
2018-Apr-15 20:59S 27°54' E 153°25'0 0.0
2018-Apr-15 19:47S 27°54' E 153°25'0 0.0
2018-Apr-15 16:35S 27°54' E 153°25'0 0.0
2018-Apr-15 16:29S 27°54' E 153°25'7 0.4
2018-Apr-14 22:11S 27°47' E 153°26'1 7.2
2018-Apr-14 22:00S 27°46' E 153°26'0 0.6
2018-Apr-14 21:28S 27°46' E 153°26'0 0.0
2018-Apr-14 20:58S 27°46' E 153°26'0 0.0
2018-Apr-14 20:22S 27°46' E 153°26'0 0.0
2018-Apr-14 19:58S 27°46' E 153°26'0 0.0
2018-Apr-14 19:19S 27°46' E 153°26'0 0.0
2018-Apr-14 18:58S 27°46' E 153°26'0 0.0
2018-Apr-14 18:28S 27°46' E 153°26'0 0.0
2018-Apr-14 17:55S 27°46' E 153°26'0 0.1
2018-Apr-14 17:28S 27°46' E 153°26'0 0.0
2018-Apr-14 16:58S 27°46' E 153°26'0 0.0
2018-Apr-14 15:07S 27°46' E 153°26'0 0.0
2018-Apr-14 14:40S 27°46' E 153°26'0 0.0
2018-Apr-14 14:28S 27°46' E 153°26'0 0.0
2018-Apr-14 12:34S 27°46' E 153°26'0 0.0
2018-Apr-14 12:28S 27°46' E 153°26'0 0.0
2018-Apr-14 11:58S 27°46' E 153°26'0 0.0
2018-Apr-14 11:28S 27°46' E 153°26'0 0.0
2018-Apr-14 10:58S 27°46' E 153°26'0 0.1
2018-Apr-14 10:28S 27°46' E 153°26'0 0.0
2018-Apr-14 09:58S 27°46' E 153°26'0 0.0
2018-Apr-14 09:28S 27°46' E 153°26'0 0.0
2018-Apr-14 08:58S 27°46' E 153°26'0 0.0
2018-Apr-14 08:28S 27°46' E 153°26'0 0.0
2018-Apr-14 07:55S 27°46' E 153°26'0 0.0
2018-Apr-14 07:28S 27°46' E 153°26'0 0.0
2018-Apr-14 06:58S 27°46' E 153°26'0 0.0
2018-Apr-14 06:28S 27°46' E 153°26'0 0.0
2018-Apr-14 05:58S 27°46' E 153°26'0 0.1
2018-Apr-14 05:22S 27°46' E 153°26'0 0.0
2018-Apr-14 01:25S 27°46' E 153°26'0 0.0
2018-Apr-14 00:46S 27°46' E 153°26'0 0.0
2018-Apr-13 21:55S 27°46' E 153°26'0 0.0
2018-Apr-13 21:28S 27°46' E 153°26'0 0.0
2018-Apr-13 20:58S 27°46' E 153°26'0 0.0
2018-Apr-13 20:28S 27°46' E 153°26'0 0.0
2018-Apr-13 19:58S 27°46' E 153°26'0 0.0
2018-Apr-13 19:25S 27°46' E 153°26'0 0.0
2018-Apr-13 18:58S 27°46' E 153°26'0 0.0
2018-Apr-13 18:28S 27°46' E 153°26'0 0.0
2018-Apr-13 17:58S 27°46' E 153°26'0 0.0
2018-Apr-13 17:28S 27°46' E 153°26'0 0.0
2018-Apr-13 16:58S 27°46' E 153°26'0 0.1
2018-Apr-13 16:28S 27°46' E 153°26'0 0.0
2018-Apr-13 15:58S 27°46' E 153°26'0 0.0
2018-Apr-13 15:28S 27°46' E 153°26'0 0.0
2018-Apr-13 12:22S 27°46' E 153°26'0 0.0
2018-Apr-13 11:52S 27°46' E 153°26'0 0.0
2018-Apr-13 11:19S 27°46' E 153°26'0 0.0
2018-Apr-13 10:58S 27°46' E 153°26'0 0.1
2018-Apr-13 10:07S 27°46' E 153°26'0 0.0
2018-Apr-13 09:46S 27°46' E 153°26'0 0.0
2018-Apr-13 09:28S 27°46' E 153°26'0 0.0
2018-Apr-13 08:58S 27°46' E 153°26'0 0.0
2018-Apr-13 08:28S 27°46' E 153°26'0 0.0
2018-Apr-13 07:58S 27°46' E 153°26'0 0.0
2018-Apr-13 07:28S 27°46' E 153°26'0 0.0
2018-Apr-13 06:52S 27°46' E 153°26'0 0.0
2018-Apr-13 06:28S 27°46' E 153°26'0 0.0
2018-Apr-13 05:58S 27°46' E 153°26'0 0.0
2018-Apr-13 05:28S 27°46' E 153°26'0 0.0
2018-Apr-13 04:58S 27°46' E 153°26'0 0.1
2018-Apr-13 04:28S 27°46' E 153°26'0 0.0
2018-Apr-13 03:58S 27°46' E 153°26'0 0.0
2018-Apr-13 03:16S 27°46' E 153°26'0 0.0
2018-Apr-13 02:58S 27°46' E 153°26'0 0.0
2018-Apr-13 02:25S 27°46' E 153°26'1 1.2
2018-Apr-13 01:59S 27°46' E 153°26'4 7.4
2018-Apr-13 01:30S 27°46' E 153°22'1 2.1
2018-Apr-13 00:58S 27°45' E 153°21'0 0.0
2018-Apr-13 00:28S 27°45' E 153°21'0 0.0
2018-Apr-12 23:55S 27°45' E 153°21'0 0.0
2018-Apr-12 23:28S 27°45' E 153°21'0 0.0
2018-Apr-12 22:52S 27°45' E 153°21'0 0.0
2018-Apr-12 22:25S 27°45' E 153°21'0 0.0
2018-Apr-12 21:28S 27°45' E 153°21'0 0.0
2018-Apr-12 20:58S 27°45' E 153°21'0 0.0
2018-Apr-12 20:28S 27°45' E 153°21'0 0.0
2018-Apr-12 19:43S 27°45' E 153°21'0 0.0
2018-Apr-12 19:16S 27°45' E 153°21'0 0.0
2018-Apr-12 18:55S 27°45' E 153°21'0 0.0
2018-Apr-12 18:25S 27°45' E 153°21'0 0.0
2018-Apr-12 17:58S 27°45' E 153°21'0 0.0
2018-Apr-12 17:01S 27°45' E 153°21'0 0.0
2018-Apr-12 16:55S 27°45' E 153°21'0 0.0
2018-Apr-12 16:28S 27°45' E 153°21'0 0.0
2018-Apr-12 15:52S 27°45' E 153°21'0 0.0
2018-Apr-12 15:22S 27°45' E 153°21'0 0.0
2018-Apr-12 14:58S 27°45' E 153°21'0 0.0
2018-Apr-12 14:28S 27°45' E 153°21'0 0.0
2018-Apr-12 13:46S 27°45' E 153°21'0 0.0
2018-Apr-12 13:13S 27°45' E 153°21'0 0.0
2018-Apr-12 12:58S 27°45' E 153°21'0 0.0
2018-Apr-12 12:22S 27°45' E 153°21'0 0.0
2018-Apr-12 11:58S 27°45' E 153°21'0 0.0
2018-Apr-12 11:22S 27°45' E 153°21'0 0.0
2018-Apr-12 10:25S 27°45' E 153°21'0 0.0
2018-Apr-12 09:43S 27°45' E 153°21'0 0.0
2018-Apr-12 09:22S 27°45' E 153°21'0 0.0
2018-Apr-12 08:58S 27°45' E 153°21'0 0.0
2018-Apr-12 08:25S 27°45' E 153°21'0 0.0
2018-Apr-12 07:58S 27°45' E 153°21'0 0.0
2018-Apr-12 06:46S 27°45' E 153°21'0 0.0
2018-Apr-12 06:25S 27°45' E 153°21'0 0.0
2018-Apr-12 05:58S 27°45' E 153°21'0 0.0
2018-Apr-12 05:22S 27°45' E 153°21'0 0.0
2018-Apr-12 04:58S 27°45' E 153°21'0 0.0
2018-Apr-12 04:16S 27°45' E 153°21'0 0.0
2018-Apr-12 03:55S 27°45' E 153°21'0 0.0
2018-Apr-12 03:28S 27°45' E 153°21'0 0.0
2018-Apr-12 02:43S 27°45' E 153°21'0 0.0
2018-Apr-12 02:04S 27°45' E 153°21'0 0.0
2018-Apr-12 01:58S 27°45' E 153°21'0 0.0
2018-Apr-12 01:28S 27°45' E 153°21'0 0.0
2018-Apr-12 00:58S 27°45' E 153°21'0 0.0
2018-Apr-11 23:40S 27°45' E 153°21'0 0.0
2018-Apr-11 22:46S 27°45' E 153°21'0 0.0
2018-Apr-11 22:10S 27°45' E 153°21'0 0.0
2018-Apr-11 21:52S 27°45' E 153°21'0 0.0
2018-Apr-11 21:28S 27°45' E 153°21'0 0.0
2018-Apr-11 20:52S 27°45' E 153°21'0 0.0
2018-Apr-11 20:22S 27°45' E 153°21'0 0.0
2018-Apr-11 19:55S 27°45' E 153°21'0 0.0
2018-Apr-11 19:28S 27°45' E 153°21'0 0.0
2018-Apr-11 18:55S 27°45' E 153°21'0 0.0
2018-Apr-11 18:28S 27°45' E 153°21'0 0.0
2018-Apr-11 17:58S 27°45' E 153°21'0 0.0
2018-Apr-11 17:28S 27°45' E 153°21'0 0.0
2018-Apr-11 16:49S 27°45' E 153°21'0 0.0
2018-Apr-11 16:25S 27°45' E 153°21'0 0.0
2018-Apr-11 15:58S 27°45' E 153°21'0 0.0
2018-Apr-11 15:28S 27°45' E 153°21'0 0.0
2018-Apr-11 14:52S 27°45' E 153°21'0 0.0
2018-Apr-11 14:28S 27°45' E 153°21'0 0.0
2018-Apr-11 13:34S 27°45' E 153°21'0 0.0
2018-Apr-11 13:22S 27°45' E 153°21'0 0.0
2018-Apr-11 12:58S 27°45' E 153°21'0 0.0
2018-Apr-11 12:28S 27°45' E 153°21'0 0.0
2018-Apr-11 11:55S 27°45' E 153°21'0 0.0
2018-Apr-11 11:28S 27°45' E 153°21'0 0.0
2018-Apr-11 10:55S 27°45' E 153°21'0 0.0
2018-Apr-11 10:28S 27°45' E 153°21'0 0.0
2018-Apr-11 09:58S 27°45' E 153°21'0 0.0
2018-Apr-11 09:04S 27°45' E 153°21'0 0.0
2018-Apr-11 08:55S 27°45' E 153°21'0 0.0
2018-Apr-11 08:25S 27°45' E 153°21'0 0.0
2018-Apr-11 07:58S 27°45' E 153°21'0 0.0
2018-Apr-11 07:28S 27°45' E 153°21'0 0.0
2018-Apr-11 06:43S 27°45' E 153°21'0 0.0
2018-Apr-11 06:28S 27°45' E 153°21'0 0.0
2018-Apr-11 05:58S 27°45' E 153°21'0 0.0
2018-Apr-11 05:16S 27°45' E 153°21'0 0.0
2018-Apr-11 04:58S 27°45' E 153°21'0 0.0
2018-Apr-11 04:25S 27°45' E 153°21'0 0.0
2018-Apr-11 03:55S 27°45' E 153°21'0 0.0
2018-Apr-11 03:25S 27°45' E 153°21'0 0.0
2018-Apr-11 02:52S 27°45' E 153°21'0 0.0
2018-Apr-11 02:25S 27°45' E 153°21'0 0.0
2018-Apr-11 01:58S 27°45' E 153°21'0 0.0
2018-Apr-11 01:25S 27°45' E 153°21'0 0.0
2018-Apr-11 00:58S 27°45' E 153°21'0 0.0
2018-Apr-11 00:28S 27°45' E 153°21'  

Dump ship's entire track history